North Pembroke, Massachusetts
Current Conditions -  °F | °C
As of 10:27 PM on Thursday 27 Nov 2014 (Local Time) from KPYM Reporting Station
Light Snow Light Snow  
Wind Chill: 25°   Ceiling: 2000
Heat Index: 33°   Visibility: 8mi
Dew Point: 31°   Wind: 9mph
Humidity: 92%   Direction: 330°NNW
Pressure: 29.99"   Gusts: NA
Location:  42.1°N, 70.78°W
Report Text: KPYM 280327Z AUTO 33008KT 8SM -SN SCT008 OVC020 01/M01 A2999 RMK AO2 SNB00 P0000 T00061006
Loading
Personal Weather Stations






























Interactive Weather Map New forecast layout! Learn more

10-Day Weather Forecast

Advertisements
Track Severe Weather on mobile